Time;durP1;ratioP1;P1;durP2;ratioP2;P2;SDS_P1;SDS_P2;PMS_P1;PMS_P2;Temp;Humidity;BMP_temperature;BMP_pressure;BME280_temperature;BME280_humidity;BME280_pressure;Samples;Min_cycle;Max_cycle;Signal;HPM_P1;HPM_P2
2021/12/27 00:01:13;;;;;;;127.62;62.17;;;;;;;-6.37;79.14;100003.77;3016628;78;21076;-72
2021/12/27 00:05:15;;;;;;;131.70;65.62;;;;;;;-6.35;79.06;100004.59;2968630;80;21034;-71
2021/12/27 00:09:18;;;;;;;123.78;66.07;;;;;;;-6.35;79.12;100005.45;2994236;77;21002;-72
2021/12/27 00:13:21;;;;;;;132.27;67.15;;;;;;;-6.41;79.34;99997.77;2967297;80;21021;-72
2021/12/27 00:17:24;;;;;;;105.20;48.85;;;;;;;-6.37;79.20;99996.00;2982933;77;21011;-72
2021/12/27 00:21:26;;;;;;;121.02;59.77;;;;;;;-6.47;79.25;99989.70;2971738;78;21117;-71
2021/12/27 00:25:29;;;;;;;93.67;46.02;;;;;;;-6.54;79.14;99993.24;2967182;79;21050;-72
2021/12/27 00:29:32;;;;;;;124.25;66.90;;;;;;;-6.54;79.12;99991.95;2967817;79;21037;-73
2021/12/27 00:33:36;;;;;;;116.62;66.37;;;;;;;-6.49;78.96;99976.36;2972703;79;21006;-73
2021/12/27 00:37:37;;;;;;;133.67;71.05;;;;;;;-6.54;79.33;99989.36;2977350;79;21026;-72
2021/12/27 00:41:40;;;;;;;127.70;65.12;;;;;;;-6.53;79.21;99993.66;2992513;77;21038;-72
2021/12/27 00:45:41;;;;;;;147.68;72.97;;;;;;;-6.60;79.22;100006.29;3031314;78;20979;-71
2021/12/27 00:49:45;;;;;;;122.58;66.97;;;;;;;-6.55;79.03;99988.95;3013389;77;20975;-72
2021/12/27 00:53:49;;;;;;;132.25;62.67;;;;;;;-6.56;79.12;99991.13;2991465;78;21002;-72
2021/12/27 00:57:53;;;;;;;124.92;66.80;;;;;;;-6.62;79.31;99986.05;2977033;80;21054;-70
2021/12/27 01:01:56;;;;;;;135.72;67.87;;;;;;;-6.59;79.13;99988.59;2984081;77;21061;-72
2021/12/27 01:05:58;;;;;;;154.27;74.58;;;;;;;-6.57;78.93;99980.36;2988241;77;21002;-71
2021/12/27 01:14:15;;;;;;;126.90;70.62;;;;;;;-6.58;78.62;99975.19;3011434;77;21057;-72
2021/12/27 01:18:15;;;;;;;126.47;65.17;;;;;;;-6.76;79.34;99985.82;3004654;77;21042;-73
2021/12/27 01:22:17;;;;;;;118.08;66.72;;;;;;;-6.72;79.08;99982.76;2991327;78;21629;-72
2021/12/27 01:26:22;;;;;;;133.12;73.97;;;;;;;-6.73;78.70;99974.59;2983415;77;21629;-72
2021/12/27 01:30:28;;;;;;;139.77;75.05;;;;;;;-6.67;78.48;99968.47;3031550;77;21630;-71
2021/12/27 01:34:32;;;;;;;118.08;63.05;;;;;;;-6.62;78.32;99958.89;3023898;77;21062;-73
2021/12/27 01:38:40;;;;;;;127.97;65.92;;;;;;;-6.66;78.21;99965.00;3011207;77;21004;-73
2021/12/27 01:43:05;;;;;;;133.32;68.95;;;;;;;-6.65;78.21;99954.61;2967817;79;21033;-71
2021/12/27 01:47:09;;;;;;;127.92;74.58;;;;;;;-6.64;78.02;99958.06;2962681;80;21682;-73
2021/12/27 01:51:14;;;;;;;148.68;74.25;;;;;;;-6.63;77.84;99947.66;2966726;79;21430;-72
2021/12/27 01:55:17;;;;;;;122.37;68.72;;;;;;;-6.57;77.77;99958.36;2967302;79;21022;-73
2021/12/27 01:59:21;;;;;;;151.22;73.62;;;;;;;-6.63;77.65;99952.84;2947436;80;20967;-72
2021/12/27 02:03:29;;;;;;;127.17;73.67;;;;;;;-6.65;77.63;99943.42;2994796;78;21018;-73
2021/12/27 02:07:34;;;;;;;137.97;66.35;;;;;;;-6.66;77.61;99946.43;3021143;78;21496;-71
2021/12/27 02:11:35;;;;;;;146.50;74.70;;;;;;;-6.63;77.61;99941.66;3020977;78;21017;-73
2021/12/27 02:15:38;;;;;;;143.95;73.30;;;;;;;-6.59;77.54;99939.42;3020891;78;21066;-73
2021/12/27 02:19:40;;;;;;;121.92;70.75;;;;;;;-6.51;77.21;99924.61;3021070;78;21014;-72
2021/12/27 02:23:43;;;;;;;136.40;70.00;;;;;;;-6.49;76.69;99912.48;3020526;77;21077;-71
2021/12/27 02:27:47;;;;;;;144.05;69.30;;;;;;;-6.44;76.36;99912.88;2992249;77;22261;-73
2021/12/27 02:31:51;;;;;;;135.70;70.45;;;;;;;-6.40;75.95;99918.41;3009803;78;20994;-71
2021/12/27 02:35:59;;;;;;;109.42;58.52;;;;;;;-6.36;75.72;99909.69;3013733;78;20975;-72
2021/12/27 02:40:01;;;;;;;132.50;63.02;;;;;;;-6.36;75.38;99909.27;2977437;80;21069;-73
2021/12/27 02:44:03;;;;;;;117.97;63.40;;;;;;;-6.41;75.01;99907.17;2978673;78;21065;-72
2021/12/27 02:48:06;;;;;;;111.75;62.08;;;;;;;-6.39;75.07;99915.77;3012543;77;21014;-72
2021/12/27 02:52:08;;;;;;;91.72;51.08;;;;;;;-6.36;74.77;99916.16;2977502;80;21033;-72
2021/12/27 02:56:14;;;;;;;109.15;56.85;;;;;;;-6.47;74.84;99930.17;2990658;78;20971;-73
2021/12/27 03:00:21;;;;;;;123.60;66.07;;;;;;;-6.49;75.09;99919.42;2977319;79;21410;-73
2021/12/27 03:04:23;;;;;;;125.53;66.92;;;;;;;-6.48;75.04;99914.66;2982534;78;21322;-72
2021/12/27 03:08:29;;;;;;;103.50;58.13;;;;;;;-6.54;75.19;99919.48;3030838;77;21022;-71
2021/12/27 03:12:30;;;;;;;143.03;67.50;;;;;;;-6.56;74.92;99893.24;2988214;78;20955;-73
2021/12/27 03:16:32;;;;;;;119.82;61.75;;;;;;;-6.58;74.96;99910.08;2977524;80;21021;-72
2021/12/27 03:20:34;;;;;;;114.22;60.88;;;;;;;-6.63;75.24;99910.60;2977617;80;21077;-73
2021/12/27 03:24:37;;;;;;;104.38;54.80;;;;;;;-6.63;75.57;99901.09;2978858;78;21018;-72
2021/12/27 03:28:43;;;;;;;111.85;60.73;;;;;;;-6.68;75.55;99904.63;3031285;77;21586;-72
2021/12/27 03:32:46;;;;;;;124.82;63.92;;;;;;;-6.75;75.66;99907.33;3030299;77;21537;-72
2021/12/27 03:36:54;;;;;;;119.60;65.30;;;;;;;-6.73;75.61;99899.56;3021017;78;21003;-73
2021/12/27 03:40:56;;;;;;;121.60;60.50;;;;;;;-6.76;75.66;99888.81;3021476;78;21022;-73
2021/12/27 03:44:57;;;;;;;80.03;40.50;;;;;;;-6.81;75.43;99896.23;3000589;78;21034;-72
2021/12/27 03:48:59;;;;;;;129.90;68.45;;;;;;;-6.97;76.54;99904.27;3007015;78;21345;-73
2021/12/27 03:53:03;;;;;;;127.58;62.93;;;;;;;-6.84;76.01;99897.16;2967502;80;21566;-72
2021/12/27 03:57:07;;;;;;;117.40;59.73;;;;;;;-6.81;75.92;99891.92;2967132;79;21041;-73
2021/12/27 04:01:16;;;;;;;119.87;67.62;;;;;;;-6.85;76.26;99886.39;2982087;78;21046;-73
2021/12/27 04:05:19;;;;;;;125.65;62.93;;;;;;;-6.78;76.29;99875.05;2967113;79;21054;-71
2021/12/27 04:09:21;;;;;;;116.57;64.22;;;;;;;-6.76;76.13;99866.82;2967213;79;20987;-71
2021/12/27 04:13:24;;;;;;;123.50;69.42;;;;;;;-6.75;76.14;99863.81;2966988;79;21379;-72
2021/12/27 04:17:26;;;;;;;116.70;64.22;;;;;;;-6.70;75.87;99874.05;2967406;80;21026;-71
2021/12/27 04:21:28;;;;;;;121.45;64.90;;;;;;;-6.70;75.97;99868.45;2966636;80;21043;-73
2021/12/27 04:25:31;;;;;;;135.48;63.85;;;;;;;-6.72;75.74;99865.47;2967140;80;21026;-72
2021/12/27 04:29:33;;;;;;;129.07;66.22;;;;;;;-6.70;75.73;99867.59;2967396;80;21081;-72
2021/12/27 04:33:36;;;;;;;125.07;69.65;;;;;;;-6.80;75.76;99862.59;2966577;80;21002;-73
2021/12/27 04:37:37;;;;;;;138.82;71.20;;;;;;;-6.79;75.89;99859.13;2966522;79;21018;-73
2021/12/27 04:41:40;;;;;;;126.27;65.78;;;;;;;-6.82;75.64;99859.17;2967691;79;21042;-73
2021/12/27 04:45:47;;;;;;;148.32;69.30;;;;;;;-6.90;75.70;99852.84;2972160;77;21050;-72
2021/12/27 04:49:52;;;;;;;137.95;70.25;;;;;;;-6.88;75.66;99855.38;3077370;77;21030;-72
2021/12/27 04:53:58;;;;;;;133.95;75.85;;;;;;;-6.90;75.76;99851.97;3076505;77;20998;-72
2021/12/27 04:58:00;;;;;;;121.87;69.70;;;;;;;-6.95;76.26;99839.56;3076732;77;21023;-73
2021/12/27 05:02:05;;;;;;;136.35;64.37;;;;;;;-7.07;76.33;99838.91;3031891;77;21712;-73
2021/12/27 05:06:07;;;;;;;124.30;65.08;;;;;;;-7.06;76.30;99841.91;2984702;78;21027;-73
2021/12/27 05:10:09;;;;;;;149.15;76.45;;;;;;;-7.07;76.38;99838.91;2971442;77;20970;-71
2021/12/27 05:14:13;;;;;;;99.25;61.48;;;;;;;-7.00;76.49;99846.55;2973272;78;21006;-71
2021/12/27 05:18:18;;;;;;;141.32;70.22;;;;;;;-7.04;76.72;99840.15;2988392;77;20987;-73
2021/12/27 05:22:20;;;;;;;119.02;63.42;;;;;;;-7.12;76.86;99842.44;3021015;78;20978;-72
2021/12/27 05:26:21;;;;;;;131.30;64.45;;;;;;;-7.11;76.81;99845.44;3020130;78;21069;-73
2021/12/27 05:30:23;;;;;;;104.12;52.48;;;;;;;-7.17;77.16;99845.09;3005739;77;21080;-72
2021/12/27 05:34:29;;;;;;;130.40;68.72;;;;;;;-7.14;77.13;99839.03;3015860;77;21056;-72
2021/12/27 05:38:31;;;;;;;141.40;72.87;;;;;;;-7.14;77.44;99849.37;3030827;77;20998;-72
2021/12/27 05:42:37;;;;;;;160.45;64.53;;;;;;;-7.11;77.35;99847.57;3030151;78;21046;-72
2021/12/27 05:46:39;;;;;;;129.50;67.90;;;;;;;-7.14;77.06;99837.74;3035630;77;20990;-72
2021/12/27 05:50:42;;;;;;;139.95;70.00;;;;;;;-7.19;77.10;99846.40;3082605;77;21351;-72
2021/12/27 05:54:44;;;;;;;130.27;67.62;;;;;;;-7.24;77.39;99848.67;3038622;77;21072;-72
2021/12/27 05:58:45;;;;;;;134.47;74.85;;;;;;;-7.29;77.40;99838.39;3030506;77;21523;-72
2021/12/27 06:02:49;;;;;;;138.97;65.35;;;;;;;-7.29;77.43;99834.52;3030429;77;21029;-72
2021/12/27 06:06:54;;;;;;;126.27;73.97;;;;;;;-7.45;77.61;99840.37;2984783;77;21026;-72
2021/12/27 06:10:57;;;;;;;137.12;69.35;;;;;;;-7.34;77.51;99833.28;2976619;80;21018;-72
2021/12/27 06:14:58;;;;;;;121.80;70.22;;;;;;;-7.32;77.40;99834.56;2987015;77;21053;-73
2021/12/27 06:19:00;;;;;;;135.25;67.60;;;;;;;-7.34;77.47;99829.86;3010261;77;21026;-72
2021/12/27 06:23:04;;;;;;;133.52;72.40;;;;;;;-7.34;77.50;99838.45;2976717;80;21546;-72
2021/12/27 06:27:09;;;;;;;141.90;72.58;;;;;;;-7.35;77.46;99843.20;2976589;79;21108;-73
2021/12/27 06:31:10;;;;;;;138.00;72.62;;;;;;;-7.34;77.33;99834.58;2976329;80;21049;-72
2021/12/27 06:35:14;;;;;;;140.62;68.55;;;;;;;-7.37;77.42;99839.80;2971927;80;21017;-71
2021/12/27 06:39:16;;;;;;;141.88;77.80;;;;;;;-7.34;77.52;99830.70;2954230;80;21047;-72
2021/12/27 06:43:18;;;;;;;130.63;65.17;;;;;;;-7.36;77.57;99828.58;2946553;80;21055;-72
2021/12/27 06:47:24;;;;;;;127.07;75.00;;;;;;;-7.39;77.67;99824.76;2946889;80;21087;-72
2021/12/27 06:51:30;;;;;;;149.18;79.62;;;;;;;-7.28;77.65;99836.64;2946985;80;21047;-72
2021/12/27 06:55:34;;;;;;;155.50;81.33;;;;;;;-7.28;77.66;99828.89;2946657;80;21082;-72
2021/12/27 06:59:39;;;;;;;157.47;77.60;;;;;;;-7.25;77.60;99821.11;2946420;80;21011;-73
2021/12/27 07:03:41;;;;;;;154.38;83.52;;;;;;;-7.18;77.47;99814.95;2946370;80;21043;-72
2021/12/27 07:07:42;;;;;;;151.15;77.53;;;;;;;-7.15;77.34;99820.52;2947096;80;21008;-73
2021/12/27 07:11:44;;;;;;;113.30;68.20;;;;;;;-7.13;77.40;99829.11;2945973;80;21028;-72
2021/12/27 07:15:47;;;;;;;132.12;75.00;;;;;;;-7.09;77.37;99830.30;2959719;79;21094;-72
2021/12/27 07:19:49;;;;;;;143.68;73.50;;;;;;;-7.04;77.48;99822.47;2960259;79;20989;-72
2021/12/27 07:23:53;;;;;;;145.80;76.20;;;;;;;-7.00;77.23;99806.48;2946175;80;21052;-73
2021/12/27 07:27:54;;;;;;;150.15;81.78;;;;;;;-6.94;77.25;99808.95;2946376;80;21032;-72
2021/12/27 07:31:56;;;;;;;137.40;73.33;;;;;;;-6.90;76.87;99801.54;2947825;80;20992;-73
2021/12/27 07:36:01;;;;;;;136.25;78.07;;;;;;;-6.90;76.90;99811.88;2960295;79;21026;-76
2021/12/27 07:40:05;;;;;;;149.75;88.37;;;;;;;-6.85;77.39;99816.55;3021026;78;21046;-72
2021/12/27 07:44:07;;;;;;;158.22;82.92;;;;;;;-6.85;77.08;99817.84;3009001;77;21006;-71
2021/12/27 07:48:10;;;;;;;141.50;77.00;;;;;;;-6.74;76.86;99817.20;2995319;77;21054;-72
2021/12/27 07:52:12;;;;;;;148.05;75.97;;;;;;;-6.62;76.97;99821.30;2986833;77;21045;-72
2021/12/27 07:56:16;;;;;;;126.65;65.95;;;;;;;-6.59;76.52;99810.04;2969046;77;21058;-72
2021/12/27 08:00:20;;;;;;;131.00;72.15;;;;;;;-6.51;76.63;99806.02;2992039;78;21041;-71
2021/12/27 08:04:22;;;;;;;164.35;86.32;;;;;;;-6.43;76.50;99798.94;3003539;78;21003;-72
2021/12/27 08:08:24;;;;;;;146.05;81.65;;;;;;;-6.29;76.43;99802.55;3020573;78;21109;-70
2021/12/27 08:12:26;;;;;;;154.10;89.45;;;;;;;-6.15;76.98;99801.42;3021739;78;20986;-71
2021/12/27 08:16:30;;;;;;;153.35;82.35;;;;;;;-6.06;76.30;99793.47;3021413;78;20983;-72
2021/12/27 08:20:35;;;;;;;141.07;73.07;;;;;;;-5.91;75.97;99795.67;3021700;78;21041;-72
2021/12/27 08:24:41;;;;;;;146.43;75.87;;;;;;;-5.85;75.45;99789.52;3019177;78;21042;-77
2021/12/27 08:28:49;;;;;;;146.60;75.00;;;;;;;-5.77;75.27;99788.05;2989862;78;21051;-75
2021/12/27 08:32:55;;;;;;;132.25;73.92;;;;;;;-5.75;74.84;99786.27;2966663;80;21359;-74
2021/12/27 08:36:58;;;;;;;;;;;;;;;-5.72;74.03;99773.23;2958744;79;21496;-76
2021/12/27 08:41:01;;;;;;;155.27;81.63;;;;;;;-5.62;74.72;99774.74;2943670;78;20149;-75
2021/12/27 08:45:07;;;;;;;136.37;73.15;;;;;;;-5.56;74.96;99775.05;2917043;80;21022;-72
2021/12/27 08:49:16;;;;;;;150.22;79.72;;;;;;;-5.51;75.50;99764.55;2962940;79;21712;-76
2021/12/27 08:53:20;;;;;;;159.18;91.90;;;;;;;-5.41;74.60;99764.75;2963544;80;20988;-74
2021/12/27 08:57:25;;;;;;;145.50;77.22;;;;;;;-5.35;75.07;99791.81;2963771;80;21025;-77
2021/12/27 09:01:27;;;;;;;161.37;85.20;;;;;;;-5.23;74.58;99769.91;2964020;80;21546;-73
2021/12/27 09:05:30;;;;;;;140.85;77.97;;;;;;;-5.20;74.51;99774.19;2962885;80;21567;-71
2021/12/27 09:09:32;;;;;;;147.07;81.57;;;;;;;-5.09;74.28;99777.80;2963335;80;21685;-76
2021/12/27 09:13:37;;;;;;;108.07;57.55;;;;;;;-5.00;74.05;99785.80;2962321;78;21554;-74
2021/12/27 09:17:43;;;;;;;138.03;80.25;;;;;;;-5.10;73.73;99773.08;2959523;80;21050;-76
2021/12/27 09:21:46;;;;;;;141.90;77.10;;;;;;;-4.86;74.01;99760.34;2945173;78;21092;-75
2021/12/27 09:25:51;;;;;;;126.78;74.35;;;;;;;-4.71;74.21;99769.45;2904967;81;21030;-72
2021/12/27 09:29:56;;;;;;;127.90;61.73;;;;;;;-4.64;73.11;99772.28;2905333;81;21010;-72
2021/12/27 09:33:58;;;;;;;145.65;73.10;;;;;;;-4.65;73.10;99750.27;2892657;78;21030;-71
2021/12/27 09:38:01;;;;;;;133.80;77.90;;;;;;;-4.58;72.48;99754.39;2986720;77;20986;-74
2021/12/27 09:42:04;;;;;;;130.40;80.47;;;;;;;-4.59;72.51;99760.05;3005500;78;21082;-73
2021/12/27 09:46:06;;;;;;;139.80;76.97;;;;;;;-4.46;72.88;99751.45;3023033;78;21053;-73
2021/12/27 09:50:12;;;;;;;153.30;71.53;;;;;;;-4.41;72.76;99751.34;3022030;78;21013;-73
2021/12/27 09:54:14;;;;;;;145.55;75.10;;;;;;;-4.27;72.80;99740.54;3022691;78;21014;-75
2021/12/27 09:58:16;;;;;;;108.15;64.65;;;;;;;-4.24;73.21;99730.06;3013118;77;21061;-72
2021/12/27 10:02:17;;;;;;;133.30;73.07;;;;;;;-4.09;73.78;99717.05;2995525;77;21332;-71
2021/12/27 10:06:22;;;;;;;135.45;78.65;;;;;;;-4.00;73.06;99714.62;2980605;78;21652;-74
2021/12/27 10:10:23;;;;;;;126.18;69.82;;;;;;;-3.94;71.67;99722.21;3014203;77;21072;-75
2021/12/27 10:14:25;;;;;;;118.57;70.55;;;;;;;-3.92;71.60;99729.54;3016085;77;21349;-72
2021/12/27 10:18:27;;;;;;;136.25;65.95;;;;;;;-3.98;71.77;99725.81;3003862;78;21041;-75
2021/12/27 10:22:28;;;;;;;121.47;67.25;;;;;;;-3.95;70.71;99711.88;3019766;78;21019;-73
2021/12/27 10:26:32;;;;;;;127.10;66.57;;;;;;;-3.80;71.84;99708.81;2991197;78;31025;-71
2021/12/27 10:30:39;;;;;;;109.35;60.52;;;;;;;-3.78;71.12;99704.84;2993438;77;21039;-73
2021/12/27 10:34:48;;;;;;;110.00;68.57;;;;;;;-3.74;71.59;99688.24;3002236;77;21990;-72
2021/12/27 10:38:54;;;;;;;129.53;65.17;;;;;;;-3.63;72.27;99700.45;2982717;78;21054;-74
2021/12/27 10:42:55;;;;;;;118.15;62.17;;;;;;;-3.57;72.33;99692.91;3018001;78;21054;-72
2021/12/27 10:46:57;;;;;;;112.90;60.52;;;;;;;-3.43;73.27;99698.11;3017197;78;21607;-69
2021/12/27 10:50:59;;;;;;;107.03;60.28;;;;;;;-3.22;73.11;99706.92;3007719;77;21034;-71
2021/12/27 10:55:01;;;;;;;108.57;59.83;;;;;;;-3.13;72.21;99697.52;3007566;77;21084;-71
2021/12/27 10:59:02;;;;;;;93.67;58.42;;;;;;;-3.04;71.97;99696.34;3004111;77;20967;-73
2021/12/27 11:03:04;;;;;;;98.87;58.35;;;;;;;-3.03;71.96;99690.23;2969885;78;21014;-72
2021/12/27 11:07:06;;;;;;;122.98;69.62;;;;;;;-3.01;72.01;99695.77;3008441;77;20999;-72
2021/12/27 11:11:08;;;;;;;111.20;53.75;;;;;;;-2.96;72.26;99668.28;2991275;77;21054;-71
2021/12/27 11:15:11;;;;;;;126.78;61.30;;;;;;;-3.04;72.42;99680.27;2966711;80;21069;-72
2021/12/27 11:19:13;;;;;;;93.40;54.15;;;;;;;-2.96;72.63;99678.70;2967635;80;21014;-73
2021/12/27 11:23:16;;;;;;;113.55;60.78;;;;;;;-3.03;72.31;99663.75;2967691;80;21535;-72
2021/12/27 11:27:18;;;;;;;139.88;78.67;;;;;;;-2.95;72.73;99670.42;2968219;80;20987;-72
2021/12/27 11:31:26;;;;;;;114.10;63.25;;;;;;;-2.96;72.37;99660.91;2967743;80;21014;-72
2021/12/27 11:35:38;;;;;;;123.55;64.17;;;;;;;-3.08;72.82;99647.45;2970110;79;21049;-73
2021/12/27 11:39:40;;;;;;;123.80;65.87;;;;;;;-3.12;73.38;99638.07;2977761;80;21057;-74
2021/12/27 11:44:02;;;;;;;125.00;63.63;;;;;;;-3.19;73.96;99640.03;2977315;79;21053;-72
2021/12/27 11:48:19;;;;;;;106.30;64.30;;;;;;;-3.25;73.90;99635.49;2977378;80;21057;-72
2021/12/27 11:52:28;;;;;;;130.93;71.97;;;;;;;-3.21;74.54;99631.88;2978053;79;21649;-72
2021/12/27 11:56:46;;;;;;;123.75;67.58;;;;;;;-3.31;74.08;99625.71;2978012;80;20963;-73
2021/12/27 12:00:48;;;;;;;112.05;65.28;;;;;;;-3.26;74.52;99616.89;2978206;80;21072;-73
2021/12/27 12:04:54;;;;;;;118.87;70.12;;;;;;;-3.17;74.89;99617.84;2977840;79;21065;-72
2021/12/27 12:08:56;;;;;;;130.40;70.12;;;;;;;-3.15;74.64;99603.03;2978105;80;21038;-72
2021/12/27 12:13:19;;;;;;;127.25;69.70;;;;;;;-3.09;75.18;99609.33;2977871;80;21501;-72
2021/12/27 12:17:38;;;;;;;112.52;65.22;;;;;;;-3.08;74.93;99608.86;2971487;80;21574;-72
2021/12/27 12:21:52;;;;;;;119.05;67.40;;;;;;;-2.99;74.71;99599.88;2978137;79;21026;-71
2021/12/27 12:25:59;;;;;;;112.20;65.12;;;;;;;-2.92;74.47;99593.55;2975879;79;21550;-71
2021/12/27 12:30:01;;;;;;;111.15;66.97;;;;;;;-2.79;73.92;99592.63;2977500;80;21002;-71
2021/12/27 12:34:15;;;;;;;120.82;62.62;;;;;;;-2.65;74.29;99578.64;2978096;80;21002;-73
2021/12/27 12:38:35;;;;;;;106.70;65.40;;;;;;;-2.62;73.95;99573.75;2977367;79;21022;-72
2021/12/27 12:42:39;;;;;;;113.17;68.95;;;;;;;-2.58;73.72;99581.83;2977625;80;21029;-71
2021/12/27 12:46:49;;;;;;;114.80;64.27;;;;;;;-2.50;73.79;99582.84;2962128;80;21609;-73
2021/12/27 12:50:55;;;;;;;113.40;65.15;;;;;;;-2.45;74.00;99580.45;2978125;79;21483;-72
2021/12/27 12:54:58;;;;;;;98.15;56.25;;;;;;;-2.42;74.51;99591.66;2978045;79;21056;-73
2021/12/27 12:59:00;;;;;;;117.80;69.37;;;;;;;-2.41;74.99;99585.09;2977413;79;21025;-72
2021/12/27 13:03:14;;;;;;;128.27;71.05;;;;;;;-2.36;75.05;99586.20;2977725;79;21002;-72
2021/12/27 13:07:33;;;;;;;104.53;64.20;;;;;;;-2.36;74.81;99582.29;2978463;80;21006;-72
2021/12/27 13:11:37;;;;;;;111.62;64.62;;;;;;;-2.27;74.89;99584.55;2977850;80;21049;-72
2021/12/27 13:15:51;;;;;;;118.35;68.22;;;;;;;-2.21;74.75;99585.59;2976762;79;21042;-72
2021/12/27 13:20:13;;;;;;;118.82;65.65;;;;;;;-2.20;74.31;99589.89;2977616;79;21026;-72
2021/12/27 13:24:15;;;;;;;121.70;70.25;;;;;;;-2.25;74.01;99585.80;2977385;80;21034;-72
2021/12/27 13:28:30;;;;;;;115.62;68.90;;;;;;;-2.24;74.43;99590.09;2977356;79;20967;-73
2021/12/27 13:32:32;;;;;;;106.32;67.20;;;;;;;-2.17;74.35;99591.54;2976943;80;21512;-72
2021/12/27 13:36:41;;;;;;;125.10;68.83;;;;;;;-2.18;74.27;99591.15;2977503;79;21035;-72
2021/12/27 13:40:53;;;;;;;117.93;68.35;;;;;;;-2.13;74.63;99589.66;2977238;80;21061;-72
2021/12/27 13:45:08;;;;;;;112.42;61.37;;;;;;;-2.07;74.68;99581.59;2977017;79;21034;-72
2021/12/27 13:49:10;;;;;;;118.60;67.85;;;;;;;-2.06;74.51;99583.28;2995864;77;21049;-71
2021/12/27 13:53:17;;;;;;;115.42;64.25;;;;;;;-2.08;74.33;99585.11;3028386;78;21555;-75
2021/12/27 13:57:20;;;;;;;113.32;64.82;;;;;;;-2.09;74.36;99580.33;3027119;77;21014;-72
2021/12/27 14:01:23;;;;;;;104.80;62.38;;;;;;;-2.04;74.49;99582.77;3020859;78;20962;-75
2021/12/27 14:05:27;;;;;;;107.03;59.75;;;;;;;-2.04;74.49;99586.67;3025259;78;21010;-75
2021/12/27 14:09:33;;;;;;;121.95;65.08;;;;;;;-2.06;74.58;99590.66;3025292;78;21046;-74
2021/12/27 14:13:55;;;;;;;113.60;69.45;;;;;;;-2.02;74.14;99583.55;3025253;77;21018;-76
2021/12/27 14:18:14;;;;;;;101.60;60.48;;;;;;;-2.09;74.73;99583.41;3012263;77;20979;-69
2021/12/27 14:22:23;;;;;;;112.35;66.42;;;;;;;-2.05;74.86;99578.46;2988321;77;20998;-74
2021/12/27 14:26:24;;;;;;;114.60;63.98;;;;;;;-2.11;75.07;99580.86;2997211;77;21041;-75
2021/12/27 14:30:34;;;;;;;107.35;63.33;;;;;;;-2.13;75.21;99574.03;2973411;80;20963;-75
2021/12/27 14:34:47;;;;;;;102.02;64.90;;;;;;;-2.13;75.42;99571.42;2984189;77;21014;-72
2021/12/27 14:38:48;;;;;;;107.75;63.10;;;;;;;-2.18;75.30;99575.52;2973343;79;20994;-68
2021/12/27 14:42:52;;;;;;;112.17;66.40;;;;;;;-2.14;75.57;99569.73;2981688;78;21164;-68
2021/12/27 14:46:54;;;;;;;94.35;54.23;;;;;;;-2.11;76.22;99574.81;3014012;77;21021;-70
2021/12/27 14:50:56;;;;;;;128.35;76.42;;;;;;;-2.13;76.40;99580.55;2972194;80;21557;-67
2021/12/27 14:54:58;;;;;;;122.90;69.03;;;;;;;-2.02;75.76;99579.63;2972726;79;21017;-67
2021/12/27 14:58:59;;;;;;;144.55;83.80;;;;;;;-2.02;75.85;99569.20;2995925;77;20990;-72
2021/12/27 15:03:01;;;;;;;140.25;81.05;;;;;;;-1.93;75.64;99575.36;2990519;78;21021;-76
2021/12/27 15:07:03;;;;;;;129.12;68.28;;;;;;;-1.96;75.15;99572.02;2984369;77;21078;-76
2021/12/27 15:11:05;;;;;;;112.00;63.87;;;;;;;-2.04;75.24;99573.20;2990865;77;21007;-78
2021/12/27 15:15:10;;;;;;;124.22;71.25;;;;;;;-2.01;75.69;99563.94;3014160;78;21101;-78
2021/12/27 15:19:12;;;;;;;131.87;74.12;;;;;;;-1.90;76.19;99573.92;2917655;80;21497;-75
2021/12/27 15:23:13;;;;;;;138.55;76.22;;;;;;;-1.89;75.68;99564.33;2940845;80;21025;-78
2021/12/27 15:27:16;;;;;;;122.60;70.30;;;;;;;-1.94;75.02;99562.38;2942129;80;21054;-73
2021/12/27 15:31:18;;;;;;;127.45;72.40;;;;;;;-1.92;74.97;99556.64;2895752;80;21062;-68
2021/12/27 15:35:24;;;;;;;129.30;75.92;;;;;;;-1.96;74.46;99546.81;2904862;81;21069;-76
2021/12/27 15:39:24;;;;;;;131.18;77.40;;;;;;;-1.94;74.90;99556.72;2892142;81;21057;-77
2021/12/27 15:43:26;;;;;;;143.40;77.97;;;;;;;-1.94;74.80;99562.38;2897944;81;20991;-70
2021/12/27 15:47:27;;;;;;;140.95;77.37;;;;;;;-1.89;74.77;99552.16;2919149;79;21069;-70
2021/12/27 15:51:29;;;;;;;135.28;75.10;;;;;;;-1.92;74.14;99556.20;2919013;81;20990;-78
2021/12/27 15:55:32;;;;;;;152.30;84.80;;;;;;;-1.92;74.60;99547.52;2918774;81;21002;-73
2021/12/27 15:59:34;;;;;;;193.30;101.75;;;;;;;-1.93;74.64;99556.25;2918789;81;21081;-77
2021/12/27 16:03:37;;;;;;;191.68;95.55;;;;;;;-1.94;73.28;99560.63;2918809;81;21014;-77
2021/12/27 16:07:40;;;;;;;162.37;93.35;;;;;;;-2.06;72.87;99556.78;2918723;79;20991;-74
2021/12/27 16:11:43;;;;;;;157.32;94.05;;;;;;;-1.98;73.13;99556.91;2888870;82;21500;-73
2021/12/27 16:15:46;;;;;;;175.03;98.17;;;;;;;-2.07;72.66;99564.65;2911824;79;21026;-70
2021/12/27 16:19:47;;;;;;;146.87;83.70;;;;;;;-2.10;72.76;99554.35;2909966;80;21014;-71
2021/12/27 16:23:49;;;;;;;131.12;75.97;;;;;;;-2.14;72.71;99559.30;2915380;80;21026;-70
2021/12/27 16:27:51;;;;;;;133.75;71.60;;;;;;;-2.22;72.53;99555.23;2939556;80;21003;-67
2021/12/27 16:31:52;;;;;;;132.57;76.20;;;;;;;-2.17;73.05;99554.58;2938933;80;20976;-70
2021/12/27 16:35:57;;;;;;;133.27;78.95;;;;;;;-2.13;73.31;99555.78;2937791;80;21532;-68
2021/12/27 16:40:02;;;;;;;129.80;79.22;;;;;;;-2.24;72.33;99557.06;2964307;80;21026;-67
2021/12/27 16:44:02;;;;;;;131.47;68.95;;;;;;;-2.14;72.66;99564.52;2928535;80;21050;-70
2021/12/27 16:48:07;;;;;;;130.03;81.60;;;;;;;-2.13;73.44;99561.00;2967015;80;21099;-70
2021/12/27 16:52:09;;;;;;;149.00;80.65;;;;;;;-2.13;72.95;99560.53;2966776;78;21063;-70
2021/12/27 16:56:10;;;;;;;124.47;71.72;;;;;;;-2.14;72.38;99554.09;2967634;80;21012;-68
2021/12/27 17:00:16;;;;;;;123.28;74.27;;;;;;;-2.19;72.71;99556.41;2966986;80;21053;-71
2021/12/27 17:04:17;;;;;;;138.27;77.37;;;;;;;-2.23;72.25;99552.23;2967370;80;21366;-69
2021/12/27 17:08:20;;;;;;;132.32;76.37;;;;;;;-2.21;72.74;99555.62;2954121;80;21005;-70
2021/12/27 17:12:22;;;;;;;142.00;79.15;;;;;;;-2.24;72.71;99557.06;2915316;80;21018;-70
2021/12/27 17:16:23;;;;;;;148.53;81.45;;;;;;;-2.20;73.04;99549.50;2956072;80;21558;-70
2021/12/27 17:20:27;;;;;;;144.22;75.45;;;;;;;-2.25;73.01;99546.24;2967922;80;21096;-71
2021/12/27 17:24:28;;;;;;;149.07;81.15;;;;;;;-2.30;73.13;99549.50;2957049;78;21013;-70
2021/12/27 17:28:30;;;;;;;135.18;77.05;;;;;;;-2.30;73.46;99550.33;2916420;80;21120;-71
2021/12/27 17:32:31;;;;;;;137.65;77.12;;;;;;;-2.36;73.21;99538.86;2967132;80;21107;-69
2021/12/27 17:36:38;;;;;;;138.07;80.22;;;;;;;-2.31;73.18;99544.73;2941374;80;21104;-71
2021/12/27 17:40:39;;;;;;;132.12;79.80;;;;;;;-2.36;72.58;99540.61;2945914;80;21034;-69
2021/12/27 17:44:41;;;;;;;130.97;72.47;;;;;;;-2.39;73.18;99543.34;2911190;80;21012;-74
2021/12/27 17:48:43;;;;;;;128.87;75.15;;;;;;;-2.42;72.93;99540.42;2940884;78;21046;-76
2021/12/27 17:52:45;;;;;;;128.18;71.45;;;;;;;-2.45;72.53;99543.98;2921954;81;20942;-76
2021/12/27 17:56:46;;;;;;;135.63;77.42;;;;;;;-2.48;72.84;99533.70;2922511;81;20978;-74
2021/12/27 18:00:48;;;;;;;130.93;74.03;;;;;;;-2.47;73.06;99527.58;2921972;81;21585;-77
2021/12/27 18:04:49;;;;;;;132.10;77.85;;;;;;;-2.44;73.77;99529.22;2922774;81;21004;-76
2021/12/27 18:08:51;;;;;;;126.30;70.92;;;;;;;-2.39;74.08;99531.62;2923286;81;21453;-68
2021/12/27 18:12:53;;;;;;;122.00;73.57;;;;;;;-2.48;73.22;99531.09;2930994;78;21628;-68
2021/12/27 18:16:54;;;;;;;133.35;67.62;;;;;;;-2.55;73.50;99532.26;2966180;80;21027;-70
2021/12/27 18:20:56;;;;;;;137.28;77.58;;;;;;;-2.62;73.29;99547.71;2965314;80;21043;-68
2021/12/27 18:24:57;;;;;;;130.52;75.95;;;;;;;-2.61;73.69;99529.88;2966045;80;21036;-71
2021/12/27 18:28:59;;;;;;;110.20;64.50;;;;;;;-2.63;73.66;99546.02;2966114;80;21087;-73
2021/12/27 18:33:01;;;;;;;125.70;64.30;;;;;;;-2.62;74.21;99536.86;2966983;80;20972;-74